• Join FlightAware (Why Join?)
  • Login
  • US Flag 
01:37AM EDT


 

Airport Tracker/Info


-or-


 

Live Flight TrackerFlight Track Log ✈ N121PR ✈ 29-Apr-2013 ✈ KJZI - KAPF

Flight Track Log - Related Links

Times and Time Zones

All times are in EDT time to prevent confusion due to time zone crossing. See the N121PR flight status page for this flight to view local times or setup timezone preferences in your user account.

Time Position Orientation Groundspeed Altitude Reporting Facility
EDT Latitude Longitude Course Direction KTS MPH feet Rate Location/Type
09:40AM 32.5342 -80.2404 232° Southwest  Level FlightAware Approximate
09:41AM 32.5049 -80.2785 220° Southwest  Level FlightAware Approximate
09:42AM 32.4825 -80.3180 232° Southwest  Level FlightAware Approximate
09:43AM 32.4555 -80.3586 232° Southwest  Level FlightAware Approximate
09:44AM 32.4285 -80.3992 232° Southwest  Level FlightAware Approximate
09:45AM 32.4015 -80.4398 232° Southwest  Level FlightAware Approximate
09:46AM 32.3745 -80.4804 232° Southwest  Level FlightAware Approximate
09:47AM 32.3475 -80.5210 232° Southwest  Level FlightAware Approximate
09:48AM 32.3205 -80.5615 232° Southwest  Level FlightAware Approximate
09:49AM 32.2934 -80.6020 232° Southwest  Level FlightAware Approximate
09:50AM 32.2663 -80.6425 232° Southwest  Level FlightAware Approximate
09:51AM 32.2393 -80.6829 232° Southwest  Level FlightAware Approximate
09:52AM 32.2123 -80.7235 233° Southwest  Level FlightAware Approximate
09:53AM 32.1860 -80.7646 233° Southwest  Level FlightAware Approximate
09:54AM 32.1597 -80.8057 233° Southwest  Level FlightAware Approximate
09:55AM 32.1334 -80.8468 233° Southwest  Level FlightAware Approximate
09:56AM 32.1070 -80.8879 233° Southwest  Level FlightAware Approximate
09:57AM 32.0807 -80.9289 233° Southwest  Level FlightAware Approximate
09:58AM 32.0543 -80.9699 233° Southwest  Level FlightAware Approximate
09:59AM 32.0279 -81.0109 233° Southwest  Level FlightAware Approximate
10:00AM 32.0015 -81.0519 233° Southwest  Level FlightAware Approximate
10:01AM 31.9751 -81.0928 233° Southwest  Level FlightAware Approximate
10:02AM 31.9487 -81.1338 233° Southwest  Level FlightAware Approximate
10:03AM 31.9223 -81.1747 233° Southwest  Level FlightAware Approximate
10:04AM 31.8828 -81.1901 190° South  Level FlightAware Approximate
10:05AM 31.8398 -81.1987 190° South  Level FlightAware Approximate
10:06AM 31.7976 -81.2119 196° South  Level FlightAware Approximate
10:07AM 31.7557 -81.2259 196° South  Level FlightAware Approximate
10:08AM 31.7137 -81.2399 196° South  Level FlightAware Approximate
10:09AM 31.6716 -81.2534 194° South  Level FlightAware Approximate
10:10AM 31.6292 -81.2655 194° South  Level FlightAware Approximate
10:11AM 31.5868 -81.2776 194° South  Level FlightAware Approximate
10:12AM 31.5444 -81.2897 194° South  Level FlightAware Approximate
10:13AM 31.5021 -81.3018 194° South  Level FlightAware Approximate
10:14AM 31.4597 -81.3139 194° South  Level FlightAware Approximate
10:15AM 31.4173 -81.3262 194° South  Level FlightAware Approximate
10:16AM 31.3750 -81.3386 194° South  Level FlightAware Approximate
10:16AM 31.6633 -81.2644 194° South 152 175 8,000  Level Jacksonville Center
10:17AM 31.3326 -81.3510 194° South  Level FlightAware Approximate
10:17AM 31.6175 -81.2800 196° South 152 175 8,000  Level Jacksonville Center
10:18AM 31.2903 -81.3634 194° South  Level FlightAware Approximate
10:18AM 31.5822 -81.2878 191° South 152 175 8,000  Level Jacksonville Center
10:19AM 31.2480 -81.3757 194° South  Level FlightAware Approximate
10:19AM 31.5469 -81.2983 194° South 152 175 8,000  Level Jacksonville Center
10:20AM 31.2057 -81.3880 194° South  Level FlightAware Approximate
10:20AM 31.5053 -81.3111 195° South 147 169 8,000  Level Jacksonville Center
10:21AM 31.1633 -81.4004 194° South  Level FlightAware Approximate
10:21AM 31.4617 -81.3242 194° South 147 169 8,000  Level Jacksonville Center
10:22AM 31.4200 -81.3369 195° South 147 169 8,000  Level Jacksonville Center
10:23AM 31.3847 -81.3472 194° South 147 169 8,000  Level Jacksonville Center
10:24AM 31.3450 -81.3600 195° South 147 169 8,000  Level Jacksonville Center
10:25AM 31.3014 -81.3728 194° South 147 169 8,000  Level Jacksonville Center
10:26AM 31.2619 -81.3858 196° South 153 176 8,000  Level Jacksonville Center
10:26AM 31.2411 -81.3886 187° South 148 170 8,000  Level Jacksonville Center
10:27AM 31.2222 -81.3961 199° South 145 167 8,000  Level Jacksonville Center
10:27AM 31.2119 -81.3986 192° South 148 170 8,000  Level Jacksonville Center
10:28AM 31.1767 -81.4089 194° South 150 173 8,000  Level Jacksonville Center
10:29AM 31.1453 -81.4217 199° South 150 173 8,000 -60 Level Jacksonville Center
10:30AM 31.0997 -81.4344 194° South 150 173 7,900 -60 Descending Jacksonville Center
10:31AM 31.0642 -81.4472 197° South 150 173 7,900  Level Jacksonville Center
10:31AM 31.0456 -81.4497 187° South 150 173 7,900  Level Jacksonville Center
10:32AM 31.0289 -81.4694 225° Southwest 150 173 7,900  Level Jacksonville Center
10:32AM 31.0103 -81.4867 218° Southwest 146 168 7,900  Level Jacksonville Center
10:33AM 31.0003 -81.5039 236° Southwest 150 173 7,900 60 Level Jacksonville Center
10:33AM 30.9814 -81.5186 214° Southwest 148 170 8,000 60 Climbing Jacksonville Center
10:34AM 30.9692 -81.5333 226° Southwest 150 173 8,000 -120 Level Jacksonville Center
10:34AM 30.9528 -81.5506 222° Southwest 148 170 7,900 -120 Descending Jacksonville Center
10:35AM 30.9383 -81.5678 226° Southwest 156 180 7,900 60 Level Jacksonville Center
10:35AM 30.9194 -81.5850 218° Southwest 157 181 8,000  Climbing Jacksonville Center
10:36AM 30.9072 -81.5997 226° Southwest 161 185 7,900 -120 Descending Jacksonville Center
10:36AM 30.8906 -81.6167 221° Southwest 151 174 7,900  Level Jacksonville Center
10:37AM 30.8556 -81.6536 222° Southwest 151 174 7,900  Level Jacksonville Center
10:38AM 30.8286 -81.6831 223° Southwest 153 176 7,900  Level Jacksonville Center
10:39AM 30.7956 -81.7147 219° Southwest 152 175 7,900  Level Jacksonville Center
10:40AM 30.7625 -81.7492 222° Southwest 150 173 7,900  Level Jacksonville Center
10:41AM 30.7336 -81.7833 225° Southwest 151 174 7,900  Level Jacksonville Center
10:42AM 30.7025 -81.8150 221° Southwest 148 170 7,900  Level Jacksonville Center
10:43AM 30.6694 -81.8492 222° Southwest 151 174 8,000  Climbing Jacksonville Center
10:44AM 30.6403 -81.8786 221° Southwest 149 171 7,900 -60 Descending Jacksonville Center
10:45AM 30.6094 -81.9150 225° Southwest 151 174 7,900  Level Jacksonville Center
10:46AM 30.5761 -81.9492 221° Southwest 153 176 7,900  Level Jacksonville Center
10:47AM 30.5411 -81.9856 222° Southwest 151 174 7,900  Level Jacksonville Center
10:48AM 30.5119 -82.0172 223° Southwest 153 176 7,900  Level Jacksonville Center
10:49AM 30.4808 -82.0514 223° Southwest 152 175 7,900  Level Jacksonville Center
10:50AM 30.4392 -82.0636 194° South 155 178 7,900  Level Jacksonville Center
10:51AM 30.3956 -82.0736 191° South 155 178 7,900 -60 Level Jacksonville Center
10:52AM 30.3517 -82.0861 194° South 157 181 7,800 -300 Descending Jacksonville Center
10:53AM 30.3058 -82.1011 196° South 166 191 7,400 -420 Descending Jacksonville Center
10:54AM 30.2683 -82.1108 193° South 167 192 7,000 -240 Descending Jacksonville Center
10:55AM 30.2225 -82.1258 196° South 159 183 7,000  Level Jacksonville Center
10:56AM 30.1786 -82.1381 194° South 155 178 7,000  Level Jacksonville Center
10:57AM 30.1350 -82.1528 196° South 155 178 7,000  Level Jacksonville Center
10:58AM 30.0933 -82.1653 195° South 154 177 7,000  Level Jacksonville Center
10:59AM 30.0517 -82.1750 191° South 152 175 7,000  Level Jacksonville Center
11:01AM 30.0036 -82.1875 193° South 154 177 7,000 -60 Level Jacksonville Center
11:02AM 29.9619 -82.1997 194° South 154 177 6,900 -60 Descending Jacksonville Center
11:03AM 29.9181 -82.2119 194° South 155 178 6,900  Level Jacksonville Center
11:04AM 29.8722 -82.2242 193° South 156 180 6,900  Level Jacksonville Center
11:05AM 29.8286 -82.2367 194° South 157 181 6,900  Level Jacksonville Center
11:06AM 29.7889 -82.2489 195° South 157 181 6,900  Level Jacksonville Center
11:07AM 29.7492 -82.2611 195° South 156 180 6,900  Level Jacksonville Center
11:08AM 29.7033 -82.2733 193° South 156 180 6,900  Level Jacksonville Center
11:09AM 29.6658 -82.2711 177° South 161 185 6,900  Level Jacksonville Center
11:10AM 29.6114 -82.2692 178° South 158 182 6,900  Level Jacksonville Center
11:11AM 29.5719 -82.2644 174° South 157 181 6,900  Level Jacksonville Center
11:12AM 29.5322 -82.2625 178° South 157 181 6,900  Level Jacksonville Center
11:13AM 29.4883 -82.2556 172° South 157 181 6,900  Level Jacksonville Center
11:14AM 29.4444 -82.2511 175° South 157 181 6,900  Level Jacksonville Center
11:15AM 29.3986 -82.2489 178° South 159 183 6,900  Level Jacksonville Center
11:16AM 29.3525 -82.2444 175° South 162 186 6,900  Level Jacksonville Center
11:17AM 29.3086 -82.2425 178° South 161 185 6,900  Level Jacksonville Center
11:18AM 29.2628 -82.2356 172° South 161 185 6,900  Level Jacksonville Center
11:19AM 29.2147 -82.2336 178° South 160 184 6,900  Level Jacksonville Center
11:20AM 29.1731 -82.2314 177° South 160 184 6,900  Level Jacksonville Center
11:21AM 29.1186 -82.2200 170° South 162 186 6,900  Level Jacksonville Center
11:22AM 29.0728 -82.2108 170° South 163 188 6,900  Level Jacksonville Center
11:23AM 29.0267 -82.2017 170° South 162 186 6,900  Level Jacksonville Center
11:24AM 28.9892 -82.1947 171° South 161 185 6,900  Level Jacksonville Center
11:25AM 28.9431 -82.1878 172° South 163 188 6,900  Level Jacksonville Center
11:26AM 28.8972 -82.1786 170° South 165 190 6,900  Level Jacksonville Center
11:27AM 28.8469 -82.1694 171° South 164 189 6,900  Level Jacksonville Center
11:30AM 28.7333 -82.1500 171° South 162 186 6,900  Level Tampa TRACON
11:31AM 28.6833 -82.1333 164° South 161 185 6,900  Level Tampa TRACON
11:32AM 28.6500 -82.1333 180° South 161 185 6,900  Level Tampa TRACON
11:33AM 28.6000 -82.1167 164° South 162 186 6,900  Level Tampa TRACON
11:34AM 28.5667 -82.1167 180° South 161 185 6,900  Level Tampa TRACON
11:35AM 28.5167 -82.1167 180° South 160 184 6,900  Level Tampa TRACON
11:36AM 28.4667 -82.1000 164° South 162 186 6,900  Level Tampa TRACON
11:37AM 28.4333 -82.1000 180° South 161 185 6,900  Level Tampa TRACON
11:38AM 28.3833 -82.0833 164° South 163 188 6,900  Level Tampa TRACON
11:39AM 28.3333 -82.0833 180° South 161 185 6,900  Level Tampa TRACON
11:40AM 28.3000 -82.0667 156° South 162 186 6,900  Level Tampa TRACON
11:41AM 28.2500 -82.0667 180° South 163 188 6,900  Level Tampa TRACON
11:42AM 28.2000 -82.0500 164° South 163 188 6,900  Level Tampa TRACON
11:43AM 28.1500 -82.0500 180° South 163 188 6,900  Level Tampa TRACON
11:44AM 28.0864 -82.0336 167° South 130 150 6,900  Level Miami Center
11:45AM 28.0408 -82.0247 170° South 148 170 6,900  Level Miami Center
11:46AM 27.9953 -82.0178 172° South 161 185 6,900  Level Miami Center
11:47AM 27.9542 -81.9994 158° South 161 185 6,900  Level Miami Center
11:48AM 27.9131 -81.9767 154° Southeast 161 185 7,000  Climbing Miami Center
11:49AM 27.8744 -81.9536 152° Southeast 166 191 6,900 -60 Descending Miami Center
11:50AM 27.8314 -81.9306 155° Southeast 166 191 6,900  Level Miami Center
11:51AM 27.7839 -81.9119 161° South 171 197 6,900  Level Miami Center
11:52AM 27.7400 -81.9147 183° South 162 186 6,900  Level Miami Center
11:53AM 27.6939 -81.9244 191° South 162 186 6,900  Level Miami Center
11:54AM 27.6519 -81.9250 181° South 162 186 6,900  Level Miami Center
11:55AM 27.6019 -81.9297 185° South 162 186 6,900  Level Miami Center
11:56AM 27.5578 -81.9347 186° South 162 186 6,900  Level Miami Center
11:57AM 27.5119 -81.9375 183° South 162 186 6,900  Level Miami Center
11:58AM 27.4636 -81.9425 185° South 162 186 6,900  Level Miami Center
11:59AM 27.4197 -81.9450 183° South 162 186 6,900  Level Miami Center
12:00PM 27.3736 -81.9500 186° South 162 186 6,900  Level Miami Center
12:01PM 27.3294 -81.9575 189° South 162 186 6,900  Level Miami Center
12:02PM 27.2814 -81.9600 183° South 162 186 6,900  Level Miami Center
12:03PM 27.2356 -81.9628 183° South 162 186 6,900  Level Miami Center
12:04PM 27.1914 -81.9678 186° South 162 186 6,900  Level Miami Center
12:05PM 27.1517 -81.9706 184° South 162 186 7,000  Climbing Miami Center
12:06PM 27.1094 -81.9828 194° South 157 181 7,000  Level Miami Center
12:07PM 27.0675 -81.9903 189° South 162 186 7,000  Level Miami Center
12:08PM 27.0211 -82.0022 193° South 162 186 7,000  Level Miami Center
12:09PM 26.9775 -82.0003 178° South 162 186 7,000  Level Miami Center
12:10PM 26.9314 -82.0053 186° South 162 186 7,000  Level Miami Center
12:12PM 26.8857 -81.9917 167° South  Level Estimated
12:19PM 26.6077 -81.9074 165° South  Level FlightAware Approximate
12:20PM 26.5625 -81.8931 163° South  Level FlightAware Approximate
12:21PM 26.5229 -81.8807 167° South  Level FlightAware Approximate
12:22PM 26.4827 -81.8707 167° South  Level FlightAware Approximate
12:23PM 26.4430 -81.8588 163° South  Level FlightAware Approximate
12:24PM 26.4036 -81.8456 163° South  Level FlightAware Approximate
12:25PM 26.3642 -81.8325 163° South  Level FlightAware Approximate
12:26PM 26.3248 -81.8193 163° South  Level FlightAware Approximate
12:27PM 26.2854 -81.8062 163° South  Level FlightAware Approximate
12:28PM 26.2460 -81.7931 163° South  Level FlightAware Approximate
12:29PM 26.2064 -81.7807 167° South  Level FlightAware Approximate
12:30PM 26.1662 -81.7707 167° South  Level FlightAware Approximate
12:31PM 26.1500 -81.7667 167° South  Level FlightAware Approximate
12:32PM 26.1524 -81.7756 167° South  Level Estimated
12:33PM 26.1524 -81.7756 167° South  Level Estimated
12:34PM 26.1524 -81.7756 167° South  Level Estimated
12:35PM 26.1524 -81.7756 167° South  Level Estimated
12:36PM 26.1524 -81.7756 167° South  Level Estimated
12:37PM 26.1524 -81.7756 167° South  Level Estimated
12:38PM 26.1524 -81.7756 167° South  Level Estimated
12:39PM 26.1524 -81.7756 167° South  Level Estimated
12:40PM 26.1524 -81.7756 167° South  Level Estimated
12:41PM 26.1524 -81.7756 167° South  Level Estimated
12:42PM 26.1524 -81.7756 167° South  Level Estimated
12:43PM 26.1524 -81.7756 167° South  Level Estimated
12:44PM 26.1524 -81.7756 167° South  Level Estimated
12:45PM 26.1524 -81.7756 167° South  Level Estimated
12:46PM 26.1524 -81.7756 167° South  Level Estimated
12:47PM 26.1524 -81.7756 167° South  Level Estimated
12:48PM 26.1524 -81.7756 167° South  Level Estimated